sensor_id;sensor_type;location;lat;lon;timestamp;pressure;altitude;pressure_sealevel;temperature;humidity
62634;BME280;48704;50.534;6.442;2023-04-28T00:01:16;95224.88;;;8.02;100.00
62634;BME280;48704;50.534;6.442;2023-04-28T00:03:42;95222.41;;;8.04;100.00
62634;BME280;48704;50.534;6.442;2023-04-28T00:06:07;95220.28;;;7.99;100.00
62634;BME280;48704;50.534;6.442;2023-04-28T00:08:33;95218.66;;;8.17;100.00
62634;BME280;48704;50.534;6.442;2023-04-28T00:10:58;95220.88;;;8.03;100.00
62634;BME280;48704;50.534;6.442;2023-04-28T00:13:24;95222.66;;;8.16;100.00
62634;BME280;48704;50.534;6.442;2023-04-28T00:15:50;95210.03;;;8.15;100.00
62634;BME280;48704;50.534;6.442;2023-04-28T00:18:17;95199.28;;;8.08;100.00
62634;BME280;48704;50.534;6.442;2023-04-28T00:20:42;95188.47;;;8.10;100.00
62634;BME280;48704;50.534;6.442;2023-04-28T00:23:08;95183.56;;;8.04;100.00
62634;BME280;48704;50.534;6.442;2023-04-28T00:25:33;95177.06;;;8.08;100.00
62634;BME280;48704;50.534;6.442;2023-04-28T00:27:59;95176.13;;;8.11;100.00
62634;BME280;48704;50.534;6.442;2023-04-28T00:30:24;95173.75;;;7.94;100.00
62634;BME280;48704;50.534;6.442;2023-04-28T00:32:49;95159.38;;;8.05;100.00
62634;BME280;48704;50.534;6.442;2023-04-28T00:35:14;95159.84;;;8.03;100.00
62634;BME280;48704;50.534;6.442;2023-04-28T00:37:40;95153.44;;;7.88;100.00
62634;BME280;48704;50.534;6.442;2023-04-28T00:40:06;95157.09;;;7.94;100.00
62634;BME280;48704;50.534;6.442;2023-04-28T00:42:31;95151.22;;;8.01;100.00
62634;BME280;48704;50.534;6.442;2023-04-28T00:44:56;95153.00;;;8.14;100.00
62634;BME280;48704;50.534;6.442;2023-04-28T00:47:22;95147.94;;;8.27;100.00
62634;BME280;48704;50.534;6.442;2023-04-28T00:49:47;95153.13;;;8.43;100.00
62634;BME280;48704;50.534;6.442;2023-04-28T00:52:14;95155.59;;;8.41;100.00
62634;BME280;48704;50.534;6.442;2023-04-28T00:54:39;95148.50;;;8.40;100.00
62634;BME280;48704;50.534;6.442;2023-04-28T00:57:06;95150.81;;;8.42;100.00
62634;BME280;48704;50.534;6.442;2023-04-28T00:59:32;95149.22;;;8.50;100.00
62634;BME280;48704;50.534;6.442;2023-04-28T01:01:58;95152.53;;;8.39;100.00
62634;BME280;48704;50.534;6.442;2023-04-28T01:04:25;95151.03;;;8.53;100.00
62634;BME280;48704;50.534;6.442;2023-04-28T01:06:52;95139.72;;;8.56;100.00
62634;BME280;48704;50.534;6.442;2023-04-28T01:09:18;95140.13;;;8.49;100.00
62634;BME280;48704;50.534;6.442;2023-04-28T01:11:43;95142.31;;;8.45;100.00
62634;BME280;48704;50.534;6.442;2023-04-28T01:14:08;95144.84;;;8.34;100.00
62634;BME280;48704;50.534;6.442;2023-04-28T01:16:34;95150.34;;;8.43;100.00
62634;BME280;48704;50.534;6.442;2023-04-28T01:19:00;95123.56;;;8.31;100.00
62634;BME280;48704;50.534;6.442;2023-04-28T01:21:32;95112.59;;;8.13;100.00
62634;BME280;48704;50.534;6.442;2023-04-28T01:23:58;95111.25;;;8.08;100.00
62634;BME280;48704;50.534;6.442;2023-04-28T01:26:24;95115.91;;;8.02;100.00
62634;BME280;48704;50.534;6.442;2023-04-28T01:28:49;95123.88;;;8.09;100.00
62634;BME280;48704;50.534;6.442;2023-04-28T01:31:15;95123.75;;;8.03;100.00
62634;BME280;48704;50.534;6.442;2023-04-28T01:33:40;95113.31;;;7.98;100.00
62634;BME280;48704;50.534;6.442;2023-04-28T01:36:06;95108.00;;;8.10;100.00
62634;BME280;48704;50.534;6.442;2023-04-28T01:38:31;95111.88;;;8.27;100.00
62634;BME280;48704;50.534;6.442;2023-04-28T01:40:56;95107.66;;;8.17;100.00
62634;BME280;48704;50.534;6.442;2023-04-28T01:43:23;95105.56;;;8.26;100.00
62634;BME280;48704;50.534;6.442;2023-04-28T01:45:48;95101.81;;;8.15;100.00
62634;BME280;48704;50.534;6.442;2023-04-28T01:48:13;95103.22;;;8.10;100.00
62634;BME280;48704;50.534;6.442;2023-04-28T01:50:38;95099.22;;;8.26;100.00
62634;BME280;48704;50.534;6.442;2023-04-28T01:53:03;95085.66;;;8.28;100.00
62634;BME280;48704;50.534;6.442;2023-04-28T01:55:29;95083.16;;;8.15;100.00
62634;BME280;48704;50.534;6.442;2023-04-28T01:57:54;95092.22;;;8.40;100.00
62634;BME280;48704;50.534;6.442;2023-04-28T02:00:22;95084.00;;;8.45;100.00
62634;BME280;48704;50.534;6.442;2023-04-28T02:02:47;95087.91;;;8.38;100.00
62634;BME280;48704;50.534;6.442;2023-04-28T02:05:12;95090.31;;;8.60;100.00
62634;BME280;48704;50.534;6.442;2023-04-28T02:07:37;95098.19;;;8.62;100.00
62634;BME280;48704;50.534;6.442;2023-04-28T02:10:03;95083.44;;;8.70;100.00
62634;BME280;48704;50.534;6.442;2023-04-28T02:12:28;95088.06;;;8.74;100.00
62634;BME280;48704;50.534;6.442;2023-04-28T02:14:54;95089.28;;;8.73;100.00
62634;BME280;48704;50.534;6.442;2023-04-28T02:17:19;95076.34;;;8.69;100.00
62634;BME280;48704;50.534;6.442;2023-04-28T02:19:44;95067.81;;;8.58;100.00
62634;BME280;48704;50.534;6.442;2023-04-28T02:22:10;95064.66;;;8.65;100.00
62634;BME280;48704;50.534;6.442;2023-04-28T02:24:35;95072.16;;;8.74;100.00
62634;BME280;48704;50.534;6.442;2023-04-28T02:27:04;95058.75;;;8.73;100.00
62634;BME280;48704;50.534;6.442;2023-04-28T02:29:29;95055.09;;;8.66;100.00
62634;BME280;48704;50.534;6.442;2023-04-28T02:31:56;95053.56;;;8.65;100.00
62634;BME280;48704;50.534;6.442;2023-04-28T02:34:21;95050.50;;;8.63;100.00
62634;BME280;48704;50.534;6.442;2023-04-28T02:36:46;95040.16;;;8.49;100.00
62634;BME280;48704;50.534;6.442;2023-04-28T02:39:12;95042.94;;;8.49;100.00
62634;BME280;48704;50.534;6.442;2023-04-28T02:41:38;95042.66;;;8.47;100.00
62634;BME280;48704;50.534;6.442;2023-04-28T02:44:03;95040.25;;;8.40;100.00
62634;BME280;48704;50.534;6.442;2023-04-28T02:46:28;95041.13;;;8.46;100.00
62634;BME280;48704;50.534;6.442;2023-04-28T02:48:54;95041.47;;;8.39;100.00
62634;BME280;48704;50.534;6.442;2023-04-28T02:51:20;95039.75;;;8.42;100.00
62634;BME280;48704;50.534;6.442;2023-04-28T02:53:45;95034.41;;;8.38;100.00
62634;BME280;48704;50.534;6.442;2023-04-28T02:56:11;95049.38;;;8.31;100.00
62634;BME280;48704;50.534;6.442;2023-04-28T02:58:36;95062.75;;;8.42;100.00
62634;BME280;48704;50.534;6.442;2023-04-28T03:01:01;95056.31;;;8.36;100.00
62634;BME280;48704;50.534;6.442;2023-04-28T03:03:27;95056.06;;;8.49;100.00
62634;BME280;48704;50.534;6.442;2023-04-28T03:05:52;95048.97;;;8.48;100.00
62634;BME280;48704;50.534;6.442;2023-04-28T03:08:17;95044.66;;;8.61;100.00
62634;BME280;48704;50.534;6.442;2023-04-28T03:10:44;95046.28;;;8.68;100.00
62634;BME280;48704;50.534;6.442;2023-04-28T03:13:10;95040.44;;;8.66;100.00
62634;BME280;48704;50.534;6.442;2023-04-28T03:15:35;95035.94;;;8.68;100.00
62634;BME280;48704;50.534;6.442;2023-04-28T03:18:01;95035.16;;;8.68;100.00
62634;BME280;48704;50.534;6.442;2023-04-28T03:20:26;95035.38;;;8.64;100.00
62634;BME280;48704;50.534;6.442;2023-04-28T03:22:52;95026.84;;;8.53;100.00
62634;BME280;48704;50.534;6.442;2023-04-28T03:25:17;95033.06;;;8.48;100.00
62634;BME280;48704;50.534;6.442;2023-04-28T03:27:42;95025.13;;;8.41;100.00
62634;BME280;48704;50.534;6.442;2023-04-28T03:30:08;95017.94;;;8.34;100.00
62634;BME280;48704;50.534;6.442;2023-04-28T03:32:34;95006.97;;;8.31;100.00
62634;BME280;48704;50.534;6.442;2023-04-28T03:34:59;95010.22;;;8.15;100.00
62634;BME280;48704;50.534;6.442;2023-04-28T03:37:25;95011.94;;;8.27;100.00
62634;BME280;48704;50.534;6.442;2023-04-28T03:39:50;95011.94;;;8.27;100.00
62634;BME280;48704;50.534;6.442;2023-04-28T03:42:15;95005.44;;;8.30;100.00
62634;BME280;48704;50.534;6.442;2023-04-28T03:44:40;95008.28;;;8.21;100.00
62634;BME280;48704;50.534;6.442;2023-04-28T03:47:06;95011.38;;;8.23;100.00
62634;BME280;48704;50.534;6.442;2023-04-28T03:49:31;95008.50;;;8.32;100.00
62634;BME280;48704;50.534;6.442;2023-04-28T03:51:56;95008.06;;;8.33;100.00
62634;BME280;48704;50.534;6.442;2023-04-28T03:54:21;95003.81;;;8.23;100.00
62634;BME280;48704;50.534;6.442;2023-04-28T03:56:47;94993.75;;;8.26;100.00
62634;BME280;48704;50.534;6.442;2023-04-28T03:59:12;94990.69;;;8.24;100.00
62634;BME280;48704;50.534;6.442;2023-04-28T04:01:38;94991.94;;;8.23;100.00
62634;BME280;48704;50.534;6.442;2023-04-28T04:04:03;94983.41;;;8.26;100.00
62634;BME280;48704;50.534;6.442;2023-04-28T04:06:29;94981.69;;;8.29;100.00
62634;BME280;48704;50.534;6.442;2023-04-28T04:08:55;94976.00;;;8.32;100.00
62634;BME280;48704;50.534;6.442;2023-04-28T04:11:20;94959.88;;;8.22;100.00
62634;BME280;48704;50.534;6.442;2023-04-28T04:13:45;94962.94;;;8.09;100.00
62634;BME280;48704;50.534;6.442;2023-04-28T04:16:11;94953.75;;;8.03;100.00
62634;BME280;48704;50.534;6.442;2023-04-28T04:18:36;94943.88;;;8.02;100.00
62634;BME280;48704;50.534;6.442;2023-04-28T04:21:01;94940.94;;;8.05;100.00
62634;BME280;48704;50.534;6.442;2023-04-28T04:23:27;94944.88;;;8.14;100.00
62634;BME280;48704;50.534;6.442;2023-04-28T04:25:52;94952.44;;;8.13;100.00
62634;BME280;48704;50.534;6.442;2023-04-28T04:28:17;94957.88;;;8.22;100.00
62634;BME280;48704;50.534;6.442;2023-04-28T04:30:43;94952.41;;;8.28;100.00
62634;BME280;48704;50.534;6.442;2023-04-28T04:33:09;94956.09;;;8.34;100.00
62634;BME280;48704;50.534;6.442;2023-04-28T04:35:34;94975.19;;;8.32;100.00
62634;BME280;48704;50.534;6.442;2023-04-28T04:38:00;94977.34;;;8.37;100.00
62634;BME280;48704;50.534;6.442;2023-04-28T04:40:25;94988.91;;;8.35;100.00
62634;BME280;48704;50.534;6.442;2023-04-28T04:42:50;94996.88;;;8.43;100.00
62634;BME280;48704;50.534;6.442;2023-04-28T04:45:16;94994.63;;;8.32;100.00
62634;BME280;48704;50.534;6.442;2023-04-28T04:47:41;94998.81;;;8.51;100.00
62634;BME280;48704;50.534;6.442;2023-04-28T04:50:08;95006.16;;;8.54;100.00
62634;BME280;48704;50.534;6.442;2023-04-28T04:52:33;95003.09;;;8.52;100.00
62634;BME280;48704;50.534;6.442;2023-04-28T04:54:58;94993.63;;;8.44;100.00
62634;BME280;48704;50.534;6.442;2023-04-28T04:57:24;94990.53;;;8.57;100.00
62634;BME280;48704;50.534;6.442;2023-04-28T04:59:50;94998.22;;;8.47;100.00
62634;BME280;48704;50.534;6.442;2023-04-28T05:02:16;94992.47;;;8.65;100.00
62634;BME280;48704;50.534;6.442;2023-04-28T05:04:41;94991.50;;;8.68;100.00
62634;BME280;48704;50.534;6.442;2023-04-28T05:07:07;94996.88;;;8.72;100.00
62634;BME280;48704;50.534;6.442;2023-04-28T05:09:32;94998.31;;;8.67;100.00
62634;BME280;48704;50.534;6.442;2023-04-28T05:11:58;95001.75;;;8.77;100.00
62634;BME280;48704;50.534;6.442;2023-04-28T05:14:23;95008.34;;;8.80;100.00
62634;BME280;48704;50.534;6.442;2023-04-28T05:16:48;95002.63;;;8.83;100.00
62634;BME280;48704;50.534;6.442;2023-04-28T05:19:14;95005.47;;;8.89;100.00
62634;BME280;48704;50.534;6.442;2023-04-28T05:21:39;95001.56;;;8.81;100.00
62634;BME280;48704;50.534;6.442;2023-04-28T05:24:05;94991.88;;;8.91;100.00
62634;BME280;48704;50.534;6.442;2023-04-28T05:26:30;94994.38;;;8.89;100.00
62634;BME280;48704;50.534;6.442;2023-04-28T05:28:55;95005.00;;;8.90;100.00
62634;BME280;48704;50.534;6.442;2023-04-28T05:31:20;94986.72;;;8.84;100.00
62634;BME280;48704;50.534;6.442;2023-04-28T05:33:46;94978.09;;;8.82;100.00
62634;BME280;48704;50.534;6.442;2023-04-28T05:36:11;94975.59;;;8.84;100.00
62634;BME280;48704;50.534;6.442;2023-04-28T05:38:37;94970.31;;;8.86;100.00
62634;BME280;48704;50.534;6.442;2023-04-28T05:41:02;94958.72;;;8.87;100.00
62634;BME280;48704;50.534;6.442;2023-04-28T05:43:27;94965.59;;;8.92;100.00
62634;BME280;48704;50.534;6.442;2023-04-28T05:45:53;94977.69;;;8.89;100.00
62634;BME280;48704;50.534;6.442;2023-04-28T05:48:18;94966.59;;;8.89;100.00
62634;BME280;48704;50.534;6.442;2023-04-28T05:50:44;94965.19;;;8.99;100.00
62634;BME280;48704;50.534;6.442;2023-04-28T05:53:09;94970.84;;;9.04;100.00
62634;BME280;48704;50.534;6.442;2023-04-28T05:55:35;94965.75;;;9.18;100.00
62634;BME280;48704;50.534;6.442;2023-04-28T05:58:03;94962.91;;;9.32;100.00
62634;BME280;48704;50.534;6.442;2023-04-28T06:00:28;94960.97;;;9.38;100.00
62634;BME280;48704;50.534;6.442;2023-04-28T06:02:54;94964.47;;;9.54;100.00
62634;BME280;48704;50.534;6.442;2023-04-28T06:05:19;94954.19;;;9.60;100.00
62634;BME280;48704;50.534;6.442;2023-04-28T06:07:45;94949.69;;;9.68;100.00
62634;BME280;48704;50.534;6.442;2023-04-28T06:10:10;94945.94;;;9.71;100.00
62634;BME280;48704;50.534;6.442;2023-04-28T06:12:36;94952.34;;;9.77;100.00
62634;BME280;48704;50.534;6.442;2023-04-28T06:15:01;94966.13;;;9.86;100.00
62634;BME280;48704;50.534;6.442;2023-04-28T06:17:27;94964.16;;;9.92;100.00
62634;BME280;48704;50.534;6.442;2023-04-28T06:19:55;94965.97;;;9.95;100.00
62634;BME280;48704;50.534;6.442;2023-04-28T06:22:21;94973.63;;;10.00;100.00
62634;BME280;48704;50.534;6.442;2023-04-28T06:24:46;94977.22;;;10.06;100.00
62634;BME280;48704;50.534;6.442;2023-04-28T06:27:11;94982.78;;;10.06;100.00
62634;BME280;48704;50.534;6.442;2023-04-28T06:29:37;94977.34;;;10.18;100.00
62634;BME280;48704;50.534;6.442;2023-04-28T06:32:02;94986.00;;;10.20;100.00
62634;BME280;48704;50.534;6.442;2023-04-28T06:34:28;94993.94;;;10.27;100.00
62634;BME280;48704;50.534;6.442;2023-04-28T06:36:57;95005.78;;;10.22;100.00
62634;BME280;48704;50.534;6.442;2023-04-28T06:39:22;95013.41;;;10.27;100.00
62634;BME280;48704;50.534;6.442;2023-04-28T06:41:47;95023.34;;;10.13;100.00
62634;BME280;48704;50.534;6.442;2023-04-28T06:44:12;95022.91;;;10.41;100.00
62634;BME280;48704;50.534;6.442;2023-04-28T06:46:38;95018.22;;;10.52;100.00
62634;BME280;48704;50.534;6.442;2023-04-28T06:49:03;95010.69;;;10.58;100.00
62634;BME280;48704;50.534;6.442;2023-04-28T06:51:30;95026.00;;;10.68;100.00
62634;BME280;48704;50.534;6.442;2023-04-28T06:53:57;95032.06;;;10.67;100.00
62634;BME280;48704;50.534;6.442;2023-04-28T06:56:22;95037.59;;;10.61;100.00
62634;BME280;48704;50.534;6.442;2023-04-28T06:58:47;95028.41;;;10.55;100.00
62634;BME280;48704;50.534;6.442;2023-04-28T07:01:13;95026.31;;;10.50;100.00
62634;BME280;48704;50.534;6.442;2023-04-28T07:03:38;95022.81;;;10.55;100.00
62634;BME280;48704;50.534;6.442;2023-04-28T07:06:04;95014.84;;;10.43;100.00
62634;BME280;48704;50.534;6.442;2023-04-28T07:08:30;95022.69;;;10.44;100.00
62634;BME280;48704;50.534;6.442;2023-04-28T07:10:55;95013.66;;;10.49;100.00
62634;BME280;48704;50.534;6.442;2023-04-28T07:13:21;95011.41;;;10.53;100.00
62634;BME280;48704;50.534;6.442;2023-04-28T07:15:46;95014.53;;;10.61;100.00
62634;BME280;48704;50.534;6.442;2023-04-28T07:18:11;95016.28;;;10.58;100.00
62634;BME280;48704;50.534;6.442;2023-04-28T07:20:37;95011.25;;;10.62;100.00
62634;BME280;48704;50.534;6.442;2023-04-28T07:23:02;95011.25;;;10.62;100.00
62634;BME280;48704;50.534;6.442;2023-04-28T07:25:27;94997.91;;;10.72;100.00
62634;BME280;48704;50.534;6.442;2023-04-28T07:27:52;94997.69;;;10.76;100.00
62634;BME280;48704;50.534;6.442;2023-04-28T07:30:18;94998.31;;;10.91;100.00
62634;BME280;48704;50.534;6.442;2023-04-28T07:32:43;94999.41;;;10.99;100.00
62634;BME280;48704;50.534;6.442;2023-04-28T07:35:09;95005.34;;;11.12;100.00
62634;BME280;48704;50.534;6.442;2023-04-28T07:37:35;95006.06;;;11.07;100.00
62634;BME280;48704;50.534;6.442;2023-04-28T07:40:01;95012.94;;;11.12;100.00
62634;BME280;48704;50.534;6.442;2023-04-28T07:42:26;95009.56;;;11.02;100.00
62634;BME280;48704;50.534;6.442;2023-04-28T07:44:51;95009.19;;;11.20;100.00
62634;BME280;48704;50.534;6.442;2023-04-28T07:47:17;95018.28;;;11.15;100.00
62634;BME280;48704;50.534;6.442;2023-04-28T07:49:42;95022.84;;;11.13;100.00
62634;BME280;48704;50.534;6.442;2023-04-28T07:52:08;95025.38;;;11.16;100.00
62634;BME280;48704;50.534;6.442;2023-04-28T07:54:33;95032.69;;;11.08;100.00
62634;BME280;48704;50.534;6.442;2023-04-28T07:56:59;95033.47;;;11.14;100.00
62634;BME280;48704;50.534;6.442;2023-04-28T07:59:25;95044.56;;;11.03;100.00
62634;BME280;48704;50.534;6.442;2023-04-28T08:01:50;95036.69;;;11.01;100.00
62634;BME280;48704;50.534;6.442;2023-04-28T08:04:16;95039.53;;;11.07;100.00
62634;BME280;48704;50.534;6.442;2023-04-28T08:06:41;95034.94;;;11.04;100.00
62634;BME280;48704;50.534;6.442;2023-04-28T08:09:06;95035.47;;;11.08;100.00
62634;BME280;48704;50.534;6.442;2023-04-28T08:11:33;95051.50;;;11.19;100.00
62634;BME280;48704;50.534;6.442;2023-04-28T08:13:59;95041.66;;;11.23;100.00
62634;BME280;48704;50.534;6.442;2023-04-28T08:16:27;95038.44;;;11.30;100.00
62634;BME280;48704;50.534;6.442;2023-04-28T08:18:53;95042.59;;;11.46;100.00
62634;BME280;48704;50.534;6.442;2023-04-28T08:21:18;95040.97;;;11.71;100.00
62634;BME280;48704;50.534;6.442;2023-04-28T08:23:43;95043.19;;;11.98;100.00
62634;BME280;48704;50.534;6.442;2023-04-28T08:26:09;95045.41;;;11.89;100.00
62634;BME280;48704;50.534;6.442;2023-04-28T08:28:34;95044.50;;;11.66;100.00
62634;BME280;48704;50.534;6.442;2023-04-28T08:31:00;95050.53;;;11.59;100.00
62634;BME280;48704;50.534;6.442;2023-04-28T08:33:25;95050.47;;;11.48;100.00
62634;BME280;48704;50.534;6.442;2023-04-28T08:35:50;95047.38;;;11.40;100.00
62634;BME280;48704;50.534;6.442;2023-04-28T08:38:16;95050.22;;;11.51;100.00
62634;BME280;48704;50.534;6.442;2023-04-28T08:40:42;95048.47;;;11.54;100.00
62634;BME280;48704;50.534;6.442;2023-04-28T08:43:08;95054.59;;;11.58;100.00
62634;BME280;48704;50.534;6.442;2023-04-28T08:45:40;95052.53;;;11.53;100.00
62634;BME280;48704;50.534;6.442;2023-04-28T08:48:19;95054.81;;;11.54;100.00
62634;BME280;48704;50.534;6.442;2023-04-28T08:50:50;95057.66;;;11.60;100.00
62634;BME280;48704;50.534;6.442;2023-04-28T08:53:21;95056.41;;;11.66;100.00
62634;BME280;48704;50.534;6.442;2023-04-28T08:55:49;95064.53;;;11.64;100.00
62634;BME280;48704;50.534;6.442;2023-04-28T08:58:15;95067.09;;;11.68;100.00
62634;BME280;48704;50.534;6.442;2023-04-28T09:00:41;95063.50;;;11.62;100.00
62634;BME280;48704;50.534;6.442;2023-04-28T09:03:07;95068.88;;;11.71;100.00
62634;BME280;48704;50.534;6.442;2023-04-28T09:05:33;95066.06;;;11.65;100.00
62634;BME280;48704;50.534;6.442;2023-04-28T09:08:01;95076.19;;;11.63;100.00
62634;BME280;48704;50.534;6.442;2023-04-28T09:10:26;95069.88;;;11.68;100.00
62634;BME280;48704;50.534;6.442;2023-04-28T09:12:53;95079.63;;;11.78;100.00
62634;BME280;48704;50.534;6.442;2023-04-28T09:15:38;95081.50;;;11.98;100.00
62634;BME280;48704;50.534;6.442;2023-04-28T09:18:07;95074.91;;;12.01;100.00
62634;BME280;48704;50.534;6.442;2023-04-28T09:20:33;95075.91;;;11.98;100.00
62634;BME280;48704;50.534;6.442;2023-04-28T09:23:16;95080.06;;;12.14;100.00
62634;BME280;48704;50.534;6.442;2023-04-28T09:26:04;95083.69;;;12.31;100.00
62634;BME280;48704;50.534;6.442;2023-04-28T09:28:31;95076.63;;;12.41;100.00
62634;BME280;48704;50.534;6.442;2023-04-28T09:30:57;95082.22;;;12.47;100.00
62634;BME280;48704;50.534;6.442;2023-04-28T09:33:23;95069.59;;;12.73;100.00
62634;BME280;48704;50.534;6.442;2023-04-28T09:35:48;95061.28;;;12.96;100.00
62634;BME280;48704;50.534;6.442;2023-04-28T09:38:14;95070.72;;;13.37;100.00
62634;BME280;48704;50.534;6.442;2023-04-28T09:40:59;95061.06;;;13.61;100.00
62634;BME280;48704;50.534;6.442;2023-04-28T09:43:33;95063.25;;;14.07;100.00
62634;BME280;48704;50.534;6.442;2023-04-28T09:46:02;95057.19;;;13.81;100.00
62634;BME280;48704;50.534;6.442;2023-04-28T09:48:31;95071.47;;;13.66;100.00
62634;BME280;48704;50.534;6.442;2023-04-28T09:51:01;95064.56;;;13.84;100.00
62634;BME280;48704;50.534;6.442;2023-04-28T09:53:27;95051.56;;;13.92;100.00
62634;BME280;48704;50.534;6.442;2023-04-28T09:55:55;95060.19;;;14.11;100.00
62634;BME280;48704;50.534;6.442;2023-04-28T09:58:21;95047.22;;;14.02;100.00
62634;BME280;48704;50.534;6.442;2023-04-28T10:00:56;95051.06;;;13.82;100.00
62634;BME280;48704;50.534;6.442;2023-04-28T10:03:26;95055.19;;;13.48;100.00
62634;BME280;48704;50.534;6.442;2023-04-28T10:05:52;95062.09;;;13.35;100.00
62634;BME280;48704;50.534;6.442;2023-04-28T10:08:19;95061.81;;;13.45;100.00
62634;BME280;48704;50.534;6.442;2023-04-28T10:10:47;95062.31;;;13.65;100.00
62634;BME280;48704;50.534;6.442;2023-04-28T10:13:14;95055.66;;;13.85;100.00
62634;BME280;48704;50.534;6.442;2023-04-28T10:15:41;95067.38;;;13.89;100.00
62634;BME280;48704;50.534;6.442;2023-04-28T10:18:07;95058.31;;;14.41;100.00
62634;BME280;48704;50.534;6.442;2023-04-28T10:20:33;95049.59;;;14.50;100.00
62634;BME280;48704;50.534;6.442;2023-04-28T10:25:35;95053.78;;;14.85;100.00
62634;BME280;48704;50.534;6.442;2023-04-28T10:28:05;95053.31;;;15.16;100.00
62634;BME280;48704;50.534;6.442;2023-04-28T10:30:30;95054.22;;;15.60;100.00
62634;BME280;48704;50.534;6.442;2023-04-28T10:38:03;95043.88;;;14.78;100.00
62634;BME280;48704;50.534;6.442;2023-04-28T10:40:30;95047.28;;;14.54;100.00
62634;BME280;48704;50.534;6.442;2023-04-28T10:42:55;95054.41;;;14.55;100.00
62634;BME280;48704;50.534;6.442;2023-04-28T10:48:22;95044.88;;;15.16;100.00
62634;BME280;48704;50.534;6.442;2023-04-28T10:58:36;95045.84;;;17.59;100.00
62634;BME280;48704;50.534;6.442;2023-04-28T11:06:35;95033.66;;;17.83;100.00
62634;BME280;48704;50.534;6.442;2023-04-28T11:11:39;95022.28;;;17.11;100.00
62634;BME280;48704;50.534;6.442;2023-04-28T11:16:53;95034.78;;;16.97;100.00
62634;BME280;48704;50.534;6.442;2023-04-28T11:19:20;95027.88;;;17.30;100.00
62634;BME280;48704;50.534;6.442;2023-04-28T11:21:47;95016.66;;;17.75;100.00
62634;BME280;48704;50.534;6.442;2023-04-28T11:24:13;95025.44;;;17.85;100.00
62634;BME280;48704;50.534;6.442;2023-04-28T11:26:40;95026.69;;;18.16;100.00
62634;BME280;48704;50.534;6.442;2023-04-28T11:29:06;95027.94;;;18.81;100.00
62634;BME280;48704;50.534;6.442;2023-04-28T11:31:32;95021.19;;;18.84;100.00
62634;BME280;48704;50.534;6.442;2023-04-28T11:34:09;95019.28;;;18.99;100.00
62634;BME280;48704;50.534;6.442;2023-04-28T11:36:41;95013.09;;;19.01;100.00
62634;BME280;48704;50.534;6.442;2023-04-28T11:39:10;95006.34;;;19.04;100.00
62634;BME280;48704;50.534;6.442;2023-04-28T11:41:38;95010.78;;;19.67;100.00
62634;BME280;48704;50.534;6.442;2023-04-28T11:44:14;95001.22;;;19.99;100.00
62634;BME280;48704;50.534;6.442;2023-04-28T11:47:00;95004.53;;;19.90;96.03
62634;BME280;48704;50.534;6.442;2023-04-28T11:51:54;94999.78;;;18.15;100.00
62634;BME280;48704;50.534;6.442;2023-04-28T11:54:24;95002.69;;;17.37;100.00
62634;BME280;48704;50.534;6.442;2023-04-28T11:56:51;94999.78;;;18.01;100.00
62634;BME280;48704;50.534;6.442;2023-04-28T11:59:17;95001.81;;;19.01;100.00
62634;BME280;48704;50.534;6.442;2023-04-28T12:01:53;94997.78;;;19.30;100.00
62634;BME280;48704;50.534;6.442;2023-04-28T12:04:45;94999.59;;;19.62;95.69
62634;BME280;48704;50.534;6.442;2023-04-28T12:07:16;95000.38;;;20.40;92.32
62634;BME280;48704;50.534;6.442;2023-04-28T12:09:44;95006.34;;;21.16;89.94
62634;BME280;48704;50.534;6.442;2023-04-28T12:12:15;94996.69;;;20.60;89.74
62634;BME280;48704;50.534;6.442;2023-04-28T12:14:59;95011.88;;;20.86;91.83
62634;BME280;48704;50.534;6.442;2023-04-28T12:17:33;95007.91;;;20.45;87.48
62634;BME280;48704;50.534;6.442;2023-04-28T12:20:07;95003.78;;;20.46;84.82
62634;BME280;48704;50.534;6.442;2023-04-28T12:22:47;95000.34;;;21.43;87.21
62634;BME280;48704;50.534;6.442;2023-04-28T12:25:15;94995.00;;;21.16;83.77
62634;BME280;48704;50.534;6.442;2023-04-28T12:27:57;94994.16;;;22.13;81.26
62634;BME280;48704;50.534;6.442;2023-04-28T12:30:23;94981.69;;;22.79;71.96
62634;BME280;48704;50.534;6.442;2023-04-28T12:32:49;94976.66;;;21.17;77.87
62634;BME280;48704;50.534;6.442;2023-04-28T12:35:14;94979.97;;;21.52;79.56
62634;BME280;48704;50.534;6.442;2023-04-28T12:37:43;94983.66;;;21.09;79.36
62634;BME280;48704;50.534;6.442;2023-04-28T12:40:08;94982.44;;;20.45;84.31
62634;BME280;48704;50.534;6.442;2023-04-28T12:42:35;94981.09;;;20.75;82.58
62634;BME280;48704;50.534;6.442;2023-04-28T12:45:00;94989.38;;;19.17;88.70
62634;BME280;48704;50.534;6.442;2023-04-28T12:47:26;94988.41;;;18.81;92.12
62634;BME280;48704;50.534;6.442;2023-04-28T12:49:51;94984.34;;;18.55;95.41
62634;BME280;48704;50.534;6.442;2023-04-28T12:52:18;94984.78;;;18.33;99.08
62634;BME280;48704;50.534;6.442;2023-04-28T12:54:43;94990.75;;;17.77;100.00
62634;BME280;48704;50.534;6.442;2023-04-28T12:57:11;94989.69;;;17.34;100.00
62634;BME280;48704;50.534;6.442;2023-04-28T12:59:37;94996.00;;;16.71;100.00
62634;BME280;48704;50.534;6.442;2023-04-28T13:02:03;94995.22;;;16.33;100.00
62634;BME280;48704;50.534;6.442;2023-04-28T13:04:29;94989.31;;;15.93;100.00
62634;BME280;48704;50.534;6.442;2023-04-28T13:06:54;95002.06;;;15.70;100.00
62634;BME280;48704;50.534;6.442;2023-04-28T13:09:23;95019.25;;;14.95;100.00
62634;BME280;48704;50.534;6.442;2023-04-28T13:11:49;95005.00;;;14.52;100.00
62634;BME280;48704;50.534;6.442;2023-04-28T13:14:15;95008.25;;;15.63;100.00
62634;BME280;48704;50.534;6.442;2023-04-28T13:16:40;95003.28;;;16.98;100.00
62634;BME280;48704;50.534;6.442;2023-04-28T13:19:06;94990.22;;;18.31;100.00
62634;BME280;48704;50.534;6.442;2023-04-28T13:21:37;94991.78;;;19.13;100.00
62634;BME280;48704;50.534;6.442;2023-04-28T13:24:03;94990.47;;;19.35;100.00